sensor_id;sensor_type;location;lat;lon;timestamp;pressure;altitude;pressure_sealevel;temperature;humidity
56070;BME280;41944;52.078;-0.058;2022-08-21T00:02:14;101279.28;;;20.00;62.68
56070;BME280;41944;52.078;-0.058;2022-08-21T00:04:42;101280.46;;;19.95;62.80
56070;BME280;41944;52.078;-0.058;2022-08-21T00:07:10;101285.14;;;19.66;63.73
56070;BME280;41944;52.078;-0.058;2022-08-21T00:09:37;101288.73;;;19.67;63.95
56070;BME280;41944;52.078;-0.058;2022-08-21T00:12:05;101287.31;;;19.56;64.16
56070;BME280;41944;52.078;-0.058;2022-08-21T00:14:33;101287.00;;;19.62;64.03
56070;BME280;41944;52.078;-0.058;2022-08-21T00:17:01;101288.14;;;19.64;64.01
56070;BME280;41944;52.078;-0.058;2022-08-21T00:19:29;101284.65;;;19.41;64.78
56070;BME280;41944;52.078;-0.058;2022-08-21T00:21:57;101281.30;;;19.35;65.03
56070;BME280;41944;52.078;-0.058;2022-08-21T00:24:24;101276.95;;;19.35;65.00
56070;BME280;41944;52.078;-0.058;2022-08-21T00:26:52;101273.91;;;19.32;65.24
56070;BME280;41944;52.078;-0.058;2022-08-21T00:29:19;101270.97;;;19.19;65.60
56070;BME280;41944;52.078;-0.058;2022-08-21T00:31:47;101268.19;;;19.21;65.40
56070;BME280;41944;52.078;-0.058;2022-08-21T00:34:14;101263.19;;;19.23;65.09
56070;BME280;41944;52.078;-0.058;2022-08-21T00:36:41;101266.24;;;19.14;65.29
56070;BME280;41944;52.078;-0.058;2022-08-21T00:39:08;101262.79;;;19.12;65.21
56070;BME280;41944;52.078;-0.058;2022-08-21T00:41:41;101266.64;;;18.99;65.32
56070;BME280;41944;52.078;-0.058;2022-08-21T00:44:11;101265.54;;;18.79;66.04
56070;BME280;41944;52.078;-0.058;2022-08-21T00:46:40;101263.25;;;18.59;66.66
56070;BME280;41944;52.078;-0.058;2022-08-21T00:49:09;101261.73;;;18.50;66.90
56070;BME280;41944;52.078;-0.058;2022-08-21T00:51:39;101257.46;;;18.46;66.90
56070;BME280;41944;52.078;-0.058;2022-08-21T00:54:08;101255.83;;;18.36;67.16
56070;BME280;41944;52.078;-0.058;2022-08-21T00:56:37;101254.87;;;18.20;67.58
56070;BME280;41944;52.078;-0.058;2022-08-21T00:59:05;101256.29;;;18.08;67.97
56070;BME280;41944;52.078;-0.058;2022-08-21T01:01:32;101257.08;;;17.91;68.63
56070;BME280;41944;52.078;-0.058;2022-08-21T01:04:00;101256.42;;;17.88;68.90
56070;BME280;41944;52.078;-0.058;2022-08-21T01:06:27;101255.63;;;17.89;69.15
56070;BME280;41944;52.078;-0.058;2022-08-21T01:08:54;101254.60;;;17.90;69.42
56070;BME280;41944;52.078;-0.058;2022-08-21T01:11:21;101250.27;;;17.77;69.96
56070;BME280;41944;52.078;-0.058;2022-08-21T01:13:48;101247.46;;;17.73;70.39
56070;BME280;41944;52.078;-0.058;2022-08-21T01:16:19;101248.19;;;17.72;70.67
56070;BME280;41944;52.078;-0.058;2022-08-21T01:18:47;101248.53;;;17.59;70.96
56070;BME280;41944;52.078;-0.058;2022-08-21T01:21:17;101247.85;;;17.52;71.43
56070;BME280;41944;52.078;-0.058;2022-08-21T01:23:46;101245.96;;;17.47;71.74
56070;BME280;41944;52.078;-0.058;2022-08-21T01:26:18;101246.47;;;17.41;72.28
56070;BME280;41944;52.078;-0.058;2022-08-21T01:28:49;101244.96;;;17.41;72.61
56070;BME280;41944;52.078;-0.058;2022-08-21T01:31:20;101249.64;;;17.40;72.66
56070;BME280;41944;52.078;-0.058;2022-08-21T01:33:49;101252.04;;;17.38;73.01
56070;BME280;41944;52.078;-0.058;2022-08-21T01:36:16;101257.51;;;17.35;73.55
56070;BME280;41944;52.078;-0.058;2022-08-21T01:38:43;101259.45;;;17.32;73.83
56070;BME280;41944;52.078;-0.058;2022-08-21T01:41:10;101260.99;;;17.23;73.93
56070;BME280;41944;52.078;-0.058;2022-08-21T01:43:37;101265.15;;;17.41;74.00
56070;BME280;41944;52.078;-0.058;2022-08-21T01:46:04;101267.49;;;17.51;73.75
56070;BME280;41944;52.078;-0.058;2022-08-21T01:48:31;101269.77;;;17.45;73.93
56070;BME280;41944;52.078;-0.058;2022-08-21T01:50:58;101270.15;;;17.39;74.14
56070;BME280;41944;52.078;-0.058;2022-08-21T01:53:26;101268.26;;;17.32;74.49
56070;BME280;41944;52.078;-0.058;2022-08-21T01:55:52;101265.28;;;17.22;74.92
56070;BME280;41944;52.078;-0.058;2022-08-21T01:58:20;101266.19;;;17.28;74.84
56070;BME280;41944;52.078;-0.058;2022-08-21T02:00:47;101261.73;;;17.20;75.15
56070;BME280;41944;52.078;-0.058;2022-08-21T02:03:15;101258.95;;;17.16;75.52
56070;BME280;41944;52.078;-0.058;2022-08-21T02:05:42;101261.70;;;17.23;75.22
56070;BME280;41944;52.078;-0.058;2022-08-21T02:08:08;101260.26;;;17.20;75.29
56070;BME280;41944;52.078;-0.058;2022-08-21T02:10:36;101256.74;;;17.15;75.74
56070;BME280;41944;52.078;-0.058;2022-08-21T02:13:03;101257.69;;;17.01;76.35
56070;BME280;41944;52.078;-0.058;2022-08-21T02:15:30;101254.75;;;16.97;76.82
56070;BME280;41944;52.078;-0.058;2022-08-21T02:18:00;101254.84;;;16.92;77.15
56070;BME280;41944;52.078;-0.058;2022-08-21T02:20:32;101250.99;;;17.07;76.69
56070;BME280;41944;52.078;-0.058;2022-08-21T02:23:00;101249.85;;;17.15;76.49
56070;BME280;41944;52.078;-0.058;2022-08-21T02:25:28;101248.24;;;17.16;76.38
56070;BME280;41944;52.078;-0.058;2022-08-21T02:27:57;101246.94;;;17.21;76.45
56070;BME280;41944;52.078;-0.058;2022-08-21T02:30:27;101244.71;;;17.07;77.10
56070;BME280;41944;52.078;-0.058;2022-08-21T02:32:55;101248.72;;;16.96;77.92
56070;BME280;41944;52.078;-0.058;2022-08-21T02:35:23;101252.54;;;16.89;78.46
56070;BME280;41944;52.078;-0.058;2022-08-21T02:37:53;101253.07;;;16.88;78.91
56070;BME280;41944;52.078;-0.058;2022-08-21T02:40:23;101256.97;;;16.88;79.31
56070;BME280;41944;52.078;-0.058;2022-08-21T02:42:51;101255.46;;;16.85;79.50
56070;BME280;41944;52.078;-0.058;2022-08-21T02:45:19;101255.84;;;16.98;79.16
56070;BME280;41944;52.078;-0.058;2022-08-21T02:47:48;101259.53;;;16.90;79.67
56070;BME280;41944;52.078;-0.058;2022-08-21T02:50:19;101256.87;;;16.82;79.86
56070;BME280;41944;52.078;-0.058;2022-08-21T02:52:47;101253.35;;;16.89;79.90
56070;BME280;41944;52.078;-0.058;2022-08-21T02:55:14;101251.40;;;16.97;79.57
56070;BME280;41944;52.078;-0.058;2022-08-21T02:57:41;101254.31;;;16.86;79.97
56070;BME280;41944;52.078;-0.058;2022-08-21T03:00:09;101252.40;;;16.86;80.42
56070;BME280;41944;52.078;-0.058;2022-08-21T03:02:36;101252.03;;;16.83;80.79
56070;BME280;41944;52.078;-0.058;2022-08-21T03:05:04;101253.26;;;16.69;81.65
56070;BME280;41944;52.078;-0.058;2022-08-21T03:07:32;101250.98;;;16.67;81.92
56070;BME280;41944;52.078;-0.058;2022-08-21T03:09:59;101251.34;;;16.66;82.45
56070;BME280;41944;52.078;-0.058;2022-08-21T03:12:26;101250.35;;;16.69;82.61
56070;BME280;41944;52.078;-0.058;2022-08-21T03:14:52;101250.81;;;16.79;82.60
56070;BME280;41944;52.078;-0.058;2022-08-21T03:17:19;101251.45;;;16.64;83.31
56070;BME280;41944;52.078;-0.058;2022-08-21T03:19:46;101249.92;;;16.74;83.12
56070;BME280;41944;52.078;-0.058;2022-08-21T03:22:13;101252.37;;;16.81;82.92
56070;BME280;41944;52.078;-0.058;2022-08-21T03:24:40;101243.41;;;16.79;83.13
56070;BME280;41944;52.078;-0.058;2022-08-21T03:27:07;101237.58;;;16.90;82.75
56070;BME280;41944;52.078;-0.058;2022-08-21T03:29:34;101232.83;;;16.98;82.46
56070;BME280;41944;52.078;-0.058;2022-08-21T03:32:01;101234.57;;;16.95;82.78
56070;BME280;41944;52.078;-0.058;2022-08-21T03:34:28;101234.40;;;16.89;83.16
56070;BME280;41944;52.078;-0.058;2022-08-21T03:36:55;101231.72;;;16.89;83.36
56070;BME280;41944;52.078;-0.058;2022-08-21T03:39:22;101231.88;;;16.93;83.20
56070;BME280;41944;52.078;-0.058;2022-08-21T03:41:49;101230.08;;;16.91;83.14
56070;BME280;41944;52.078;-0.058;2022-08-21T03:44:16;101228.10;;;16.95;83.07
56070;BME280;41944;52.078;-0.058;2022-08-21T03:46:43;101229.15;;;16.99;82.88
56070;BME280;41944;52.078;-0.058;2022-08-21T03:49:10;101232.97;;;16.86;83.40
56070;BME280;41944;52.078;-0.058;2022-08-21T03:51:37;101232.94;;;16.92;83.45
56070;BME280;41944;52.078;-0.058;2022-08-21T03:54:04;101232.73;;;16.86;83.82
56070;BME280;41944;52.078;-0.058;2022-08-21T03:56:32;101237.32;;;16.73;84.48
56070;BME280;41944;52.078;-0.058;2022-08-21T03:58:59;101232.48;;;16.83;84.26
56070;BME280;41944;52.078;-0.058;2022-08-21T04:01:26;101233.89;;;16.83;84.34
56070;BME280;41944;52.078;-0.058;2022-08-21T04:03:54;101236.24;;;16.71;84.94
56070;BME280;41944;52.078;-0.058;2022-08-21T04:06:21;101233.16;;;16.87;84.40
56070;BME280;41944;52.078;-0.058;2022-08-21T04:08:48;101237.59;;;16.75;84.77
56070;BME280;41944;52.078;-0.058;2022-08-21T04:11:14;101239.06;;;16.76;85.01
56070;BME280;41944;52.078;-0.058;2022-08-21T04:13:41;101234.75;;;16.97;83.79
56070;BME280;41944;52.078;-0.058;2022-08-21T04:16:08;101241.18;;;16.78;84.66
56070;BME280;41944;52.078;-0.058;2022-08-21T04:18:35;101246.01;;;16.82;84.70
56070;BME280;41944;52.078;-0.058;2022-08-21T04:21:03;101252.20;;;16.82;84.55
56070;BME280;41944;52.078;-0.058;2022-08-21T04:23:30;101255.78;;;16.80;84.67
56070;BME280;41944;52.078;-0.058;2022-08-21T04:25:58;101258.23;;;16.77;84.65
56070;BME280;41944;52.078;-0.058;2022-08-21T04:28:26;101254.76;;;16.74;85.12
56070;BME280;41944;52.078;-0.058;2022-08-21T04:30:54;101246.80;;;16.97;83.88
56070;BME280;41944;52.078;-0.058;2022-08-21T04:33:22;101251.69;;;16.88;84.16
56070;BME280;41944;52.078;-0.058;2022-08-21T04:35:50;101251.77;;;16.90;84.30
56070;BME280;41944;52.078;-0.058;2022-08-21T04:38:17;101250.75;;;16.94;84.08
56070;BME280;41944;52.078;-0.058;2022-08-21T04:40:45;101256.01;;;16.81;84.80
56070;BME280;41944;52.078;-0.058;2022-08-21T04:43:12;101256.09;;;16.90;84.27
56070;BME280;41944;52.078;-0.058;2022-08-21T04:45:41;101259.43;;;16.87;84.36
56070;BME280;41944;52.078;-0.058;2022-08-21T04:48:12;101260.42;;;16.89;84.26
56070;BME280;41944;52.078;-0.058;2022-08-21T04:50:42;101259.56;;;16.88;84.47
56070;BME280;41944;52.078;-0.058;2022-08-21T04:53:12;101262.10;;;16.91;84.26
56070;BME280;41944;52.078;-0.058;2022-08-21T04:55:41;101266.66;;;16.80;84.76
56070;BME280;41944;52.078;-0.058;2022-08-21T04:58:11;101267.12;;;16.92;84.45
56070;BME280;41944;52.078;-0.058;2022-08-21T05:00:39;101269.28;;;16.93;84.23
56070;BME280;41944;52.078;-0.058;2022-08-21T05:03:08;101270.73;;;16.89;84.61
56070;BME280;41944;52.078;-0.058;2022-08-21T05:05:36;101275.42;;;16.92;84.40
56070;BME280;41944;52.078;-0.058;2022-08-21T05:08:04;101279.10;;;16.94;84.40
56070;BME280;41944;52.078;-0.058;2022-08-21T05:10:33;101281.48;;;17.00;83.95
56070;BME280;41944;52.078;-0.058;2022-08-21T05:13:00;101279.97;;;17.02;83.79
56070;BME280;41944;52.078;-0.058;2022-08-21T05:15:27;101281.95;;;16.96;83.83
56070;BME280;41944;52.078;-0.058;2022-08-21T05:17:54;101278.76;;;17.08;83.38
56070;BME280;41944;52.078;-0.058;2022-08-21T05:20:22;101276.34;;;17.17;82.86
56070;BME280;41944;52.078;-0.058;2022-08-21T05:22:49;101276.18;;;17.10;83.14
56070;BME280;41944;52.078;-0.058;2022-08-21T05:25:16;101279.06;;;17.10;83.31
56070;BME280;41944;52.078;-0.058;2022-08-21T05:27:43;101276.17;;;17.23;82.88
56070;BME280;41944;52.078;-0.058;2022-08-21T05:30:11;101283.20;;;17.16;83.15
56070;BME280;41944;52.078;-0.058;2022-08-21T05:32:38;101283.32;;;17.17;83.05
56070;BME280;41944;52.078;-0.058;2022-08-21T05:35:07;101282.11;;;17.20;83.00
56070;BME280;41944;52.078;-0.058;2022-08-21T05:37:34;101287.37;;;17.41;81.95
56070;BME280;41944;52.078;-0.058;2022-08-21T05:40:03;101296.89;;;17.36;82.41
56070;BME280;41944;52.078;-0.058;2022-08-21T05:42:31;101290.70;;;17.33;82.24
56070;BME280;41944;52.078;-0.058;2022-08-21T05:44:57;101290.17;;;17.46;81.85
56070;BME280;41944;52.078;-0.058;2022-08-21T05:47:25;101297.96;;;17.45;82.05
56070;BME280;41944;52.078;-0.058;2022-08-21T05:49:52;101301.47;;;17.43;82.23
56070;BME280;41944;52.078;-0.058;2022-08-21T05:52:20;101306.78;;;17.46;82.18
56070;BME280;41944;52.078;-0.058;2022-08-21T05:54:48;101308.61;;;17.43;82.56
56070;BME280;41944;52.078;-0.058;2022-08-21T05:57:14;101313.20;;;17.40;82.89
56070;BME280;41944;52.078;-0.058;2022-08-21T05:59:42;101311.16;;;17.55;82.11
56070;BME280;41944;52.078;-0.058;2022-08-21T06:02:09;101307.74;;;17.46;82.65
56070;BME280;41944;52.078;-0.058;2022-08-21T06:04:36;101306.22;;;17.44;82.82
56070;BME280;41944;52.078;-0.058;2022-08-21T06:07:04;101309.77;;;17.48;82.78
56070;BME280;41944;52.078;-0.058;2022-08-21T06:09:32;101310.13;;;17.56;82.50
56070;BME280;41944;52.078;-0.058;2022-08-21T06:12:03;101309.75;;;17.64;82.35
56070;BME280;41944;52.078;-0.058;2022-08-21T06:14:31;101309.89;;;17.78;81.41
56070;BME280;41944;52.078;-0.058;2022-08-21T06:17:02;101309.15;;;17.82;81.38
56070;BME280;41944;52.078;-0.058;2022-08-21T06:19:30;101311.42;;;17.85;81.31
56070;BME280;41944;52.078;-0.058;2022-08-21T06:21:57;101311.53;;;17.82;81.56
56070;BME280;41944;52.078;-0.058;2022-08-21T06:24:24;101312.59;;;17.85;81.38
56070;BME280;41944;52.078;-0.058;2022-08-21T06:26:52;101312.37;;;17.95;80.72
56070;BME280;41944;52.078;-0.058;2022-08-21T06:29:19;101315.77;;;18.05;80.42
56070;BME280;41944;52.078;-0.058;2022-08-21T06:31:47;101321.30;;;18.17;79.94
56070;BME280;41944;52.078;-0.058;2022-08-21T06:34:15;101322.49;;;18.29;79.26
56070;BME280;41944;52.078;-0.058;2022-08-21T06:36:42;101327.40;;;18.45;78.91
56070;BME280;41944;52.078;-0.058;2022-08-21T06:39:09;101325.13;;;18.43;79.47
56070;BME280;41944;52.078;-0.058;2022-08-21T06:41:36;101319.76;;;18.64;78.43
56070;BME280;41944;52.078;-0.058;2022-08-21T06:44:03;101317.22;;;18.65;78.54
56070;BME280;41944;52.078;-0.058;2022-08-21T06:46:30;101317.93;;;18.97;76.94
56070;BME280;41944;52.078;-0.058;2022-08-21T06:48:58;101319.75;;;19.17;76.40
56070;BME280;41944;52.078;-0.058;2022-08-21T06:51:25;101313.58;;;19.49;73.76
56070;BME280;41944;52.078;-0.058;2022-08-21T06:53:54;101311.69;;;19.62;73.88
56070;BME280;41944;52.078;-0.058;2022-08-21T06:56:21;101309.17;;;19.56;74.08
56070;BME280;41944;52.078;-0.058;2022-08-21T06:58:48;101304.68;;;19.60;73.98
56070;BME280;41944;52.078;-0.058;2022-08-21T07:01:15;101307.24;;;19.49;74.60
56070;BME280;41944;52.078;-0.058;2022-08-21T07:03:43;101306.81;;;19.37;74.94
56070;BME280;41944;52.078;-0.058;2022-08-21T07:06:11;101304.11;;;19.42;74.54
56070;BME280;41944;52.078;-0.058;2022-08-21T07:08:38;101305.43;;;19.51;74.18
56070;BME280;41944;52.078;-0.058;2022-08-21T07:11:11;101300.78;;;19.50;74.05
56070;BME280;41944;52.078;-0.058;2022-08-21T07:13:38;101298.95;;;19.48;74.74
56070;BME280;41944;52.078;-0.058;2022-08-21T07:16:06;101293.57;;;19.60;73.69
56070;BME280;41944;52.078;-0.058;2022-08-21T07:18:33;101291.63;;;19.53;74.44
56070;BME280;41944;52.078;-0.058;2022-08-21T07:21:02;101292.95;;;19.61;74.09
56070;BME280;41944;52.078;-0.058;2022-08-21T07:23:31;101293.73;;;19.59;74.17
56070;BME280;41944;52.078;-0.058;2022-08-21T07:25:59;101292.82;;;19.77;73.10
56070;BME280;41944;52.078;-0.058;2022-08-21T07:28:27;101293.15;;;19.80;72.86
56070;BME280;41944;52.078;-0.058;2022-08-21T07:30:56;101284.52;;;19.65;73.77
56070;BME280;41944;52.078;-0.058;2022-08-21T07:33:25;101271.50;;;19.84;72.54
56070;BME280;41944;52.078;-0.058;2022-08-21T07:35:53;101276.34;;;19.78;72.96
56070;BME280;41944;52.078;-0.058;2022-08-21T07:38:21;101276.55;;;19.91;72.00
56070;BME280;41944;52.078;-0.058;2022-08-21T07:40:50;101279.48;;;19.86;72.76
56070;BME280;41944;52.078;-0.058;2022-08-21T07:43:19;101284.67;;;19.82;73.03
56070;BME280;41944;52.078;-0.058;2022-08-21T07:45:48;101283.86;;;19.89;73.18
56070;BME280;41944;52.078;-0.058;2022-08-21T07:48:15;101290.42;;;20.05;72.89
56070;BME280;41944;52.078;-0.058;2022-08-21T07:50:42;101291.41;;;20.14;72.19
56070;BME280;41944;52.078;-0.058;2022-08-21T07:53:09;101293.21;;;20.23;71.89
56070;BME280;41944;52.078;-0.058;2022-08-21T07:55:36;101298.84;;;20.38;71.35
56070;BME280;41944;52.078;-0.058;2022-08-21T07:58:03;101295.31;;;20.43;71.17
56070;BME280;41944;52.078;-0.058;2022-08-21T08:00:30;101292.85;;;20.58;70.57
56070;BME280;41944;52.078;-0.058;2022-08-21T08:02:57;101293.04;;;20.85;69.49
56070;BME280;41944;52.078;-0.058;2022-08-21T08:05:26;101291.52;;;20.97;68.97
56070;BME280;41944;52.078;-0.058;2022-08-21T08:07:53;101289.62;;;21.16;67.99
56070;BME280;41944;52.078;-0.058;2022-08-21T08:10:22;101290.28;;;21.24;67.62
56070;BME280;41944;52.078;-0.058;2022-08-21T08:12:52;101288.71;;;21.37;67.44
56070;BME280;41944;52.078;-0.058;2022-08-21T08:15:22;101280.27;;;21.50;66.42
56070;BME280;41944;52.078;-0.058;2022-08-21T08:17:49;101282.13;;;21.54;66.47
56070;BME280;41944;52.078;-0.058;2022-08-21T08:20:17;101277.80;;;21.61;66.85
56070;BME280;41944;52.078;-0.058;2022-08-21T08:22:44;101273.44;;;21.88;65.39
56070;BME280;41944;52.078;-0.058;2022-08-21T08:25:13;101267.99;;;21.92;65.50
56070;BME280;41944;52.078;-0.058;2022-08-21T08:27:40;101272.57;;;22.18;63.55
56070;BME280;41944;52.078;-0.058;2022-08-21T08:30:10;101265.79;;;22.21;63.16
56070;BME280;41944;52.078;-0.058;2022-08-21T08:32:38;101267.40;;;22.00;64.76
56070;BME280;41944;52.078;-0.058;2022-08-21T08:35:06;101268.55;;;22.06;64.22
56070;BME280;41944;52.078;-0.058;2022-08-21T08:37:35;101266.36;;;22.07;64.87
56070;BME280;41944;52.078;-0.058;2022-08-21T08:40:02;101264.68;;;22.31;63.37
56070;BME280;41944;52.078;-0.058;2022-08-21T08:42:32;101271.46;;;22.60;61.91
56070;BME280;41944;52.078;-0.058;2022-08-21T08:45:04;101270.93;;;22.82;60.68
56070;BME280;41944;52.078;-0.058;2022-08-21T08:47:36;101269.86;;;22.84;60.71
56070;BME280;41944;52.078;-0.058;2022-08-21T08:50:07;101267.38;;;22.91;61.09
56070;BME280;41944;52.078;-0.058;2022-08-21T08:52:41;101272.17;;;23.00;60.66
56070;BME280;41944;52.078;-0.058;2022-08-21T08:55:13;101276.30;;;23.01;59.88
56070;BME280;41944;52.078;-0.058;2022-08-21T08:57:44;101272.88;;;23.00;59.59
56070;BME280;41944;52.078;-0.058;2022-08-21T09:00:15;101278.08;;;22.92;58.22
56070;BME280;41944;52.078;-0.058;2022-08-21T09:02:44;101276.25;;;22.94;58.86
56070;BME280;41944;52.078;-0.058;2022-08-21T09:05:24;101275.10;;;23.11;57.92
56070;BME280;41944;52.078;-0.058;2022-08-21T09:08:09;101269.84;;;23.19;57.34
56070;BME280;41944;52.078;-0.058;2022-08-21T09:10:50;101276.27;;;23.31;56.69
56070;BME280;41944;52.078;-0.058;2022-08-21T09:13:27;101271.29;;;23.40;56.49
56070;BME280;41944;52.078;-0.058;2022-08-21T09:16:03;101275.98;;;23.65;54.79
56070;BME280;41944;52.078;-0.058;2022-08-21T09:18:38;101270.94;;;23.61;55.01
56070;BME280;41944;52.078;-0.058;2022-08-21T09:21:16;101273.11;;;23.71;54.44
56070;BME280;41944;52.078;-0.058;2022-08-21T09:23:52;101273.05;;;23.89;52.55
56070;BME280;41944;52.078;-0.058;2022-08-21T09:26:23;101270.09;;;23.85;52.57
56070;BME280;41944;52.078;-0.058;2022-08-21T09:28:53;101268.68;;;23.83;53.58
56070;BME280;41944;52.078;-0.058;2022-08-21T09:31:24;101255.94;;;23.96;53.20
56070;BME280;41944;52.078;-0.058;2022-08-21T09:33:58;101258.01;;;24.05;53.01
56070;BME280;41944;52.078;-0.058;2022-08-21T09:36:33;101262.35;;;24.09;52.30
56070;BME280;41944;52.078;-0.058;2022-08-21T09:39:00;101264.97;;;24.33;51.66
56070;BME280;41944;52.078;-0.058;2022-08-21T09:41:29;101256.57;;;24.10;51.18
56070;BME280;41944;52.078;-0.058;2022-08-21T09:43:57;101258.67;;;24.21;51.15
56070;BME280;41944;52.078;-0.058;2022-08-21T09:46:26;101263.75;;;24.44;51.44
56070;BME280;41944;52.078;-0.058;2022-08-21T09:48:56;101269.02;;;24.49;49.93
56070;BME280;41944;52.078;-0.058;2022-08-21T09:51:26;101274.17;;;24.65;49.12
56070;BME280;41944;52.078;-0.058;2022-08-21T09:53:56;101272.55;;;24.82;48.71
56070;BME280;41944;52.078;-0.058;2022-08-21T09:56:28;101271.47;;;24.64;49.17
56070;BME280;41944;52.078;-0.058;2022-08-21T09:58:56;101269.40;;;24.71;49.21
56070;BME280;41944;52.078;-0.058;2022-08-21T10:01:24;101271.98;;;24.99;47.92
56070;BME280;41944;52.078;-0.058;2022-08-21T10:04:02;101272.19;;;25.01;48.06
56070;BME280;41944;52.078;-0.058;2022-08-21T10:06:30;101273.85;;;25.04;48.64
56070;BME280;41944;52.078;-0.058;2022-08-21T10:09:05;101274.80;;;24.98;48.59
56070;BME280;41944;52.078;-0.058;2022-08-21T10:11:34;101267.29;;;25.06;48.91
56070;BME280;41944;52.078;-0.058;2022-08-21T10:14:10;101271.72;;;25.26;48.54
56070;BME280;41944;52.078;-0.058;2022-08-21T10:16:46;101278.80;;;25.25;48.08
56070;BME280;41944;52.078;-0.058;2022-08-21T10:19:23;101279.01;;;25.18;47.97
56070;BME280;41944;52.078;-0.058;2022-08-21T10:22:00;101284.97;;;25.09;48.29
56070;BME280;41944;52.078;-0.058;2022-08-21T10:24:32;101278.72;;;25.17;47.66
56070;BME280;41944;52.078;-0.058;2022-08-21T10:27:10;101275.99;;;25.20;48.22
56070;BME280;41944;52.078;-0.058;2022-08-21T10:30:03;101279.59;;;25.13;48.17
56070;BME280;41944;52.078;-0.058;2022-08-21T10:32:42;101281.33;;;25.07;48.34
56070;BME280;41944;52.078;-0.058;2022-08-21T10:35:13;101275.42;;;25.03;48.50
56070;BME280;41944;52.078;-0.058;2022-08-21T10:37:55;101276.27;;;25.00;49.01
56070;BME280;41944;52.078;-0.058;2022-08-21T10:40:31;101272.02;;;25.06;49.70
56070;BME280;41944;52.078;-0.058;2022-08-21T10:43:10;101275.03;;;25.03;49.73
56070;BME280;41944;52.078;-0.058;2022-08-21T10:45:56;101279.51;;;24.88;50.25
56070;BME280;41944;52.078;-0.058;2022-08-21T10:48:29;101271.18;;;24.84;49.69
56070;BME280;41944;52.078;-0.058;2022-08-21T10:51:07;101269.90;;;24.86;49.54
56070;BME280;41944;52.078;-0.058;2022-08-21T10:53:46;101271.23;;;24.85;49.59
56070;BME280;41944;52.078;-0.058;2022-08-21T10:56:19;101273.60;;;25.02;48.47
56070;BME280;41944;52.078;-0.058;2022-08-21T10:59:00;101267.92;;;25.16;48.63
56070;BME280;41944;52.078;-0.058;2022-08-21T11:01:33;101274.34;;;25.33;47.78
56070;BME280;41944;52.078;-0.058;2022-08-21T11:04:11;101270.26;;;25.35;47.52
56070;BME280;41944;52.078;-0.058;2022-08-21T11:06:43;101266.19;;;25.34;47.95
56070;BME280;41944;52.078;-0.058;2022-08-21T11:09:14;101262.79;;;25.53;47.65
56070;BME280;41944;52.078;-0.058;2022-08-21T11:11:48;101259.72;;;25.48;47.62
56070;BME280;41944;52.078;-0.058;2022-08-21T11:14:29;101263.59;;;25.69;47.01
56070;BME280;41944;52.078;-0.058;2022-08-21T11:17:05;101274.04;;;25.69;47.35
56070;BME280;41944;52.078;-0.058;2022-08-21T11:19:38;101273.42;;;25.69;47.18
56070;BME280;41944;52.078;-0.058;2022-08-21T11:22:13;101274.78;;;25.71;46.47
56070;BME280;41944;52.078;-0.058;2022-08-21T11:24:46;101274.24;;;25.86;46.51
56070;BME280;41944;52.078;-0.058;2022-08-21T11:27:22;101271.44;;;25.76;46.56
56070;BME280;41944;52.078;-0.058;2022-08-21T11:29:52;101274.90;;;25.88;46.92
56070;BME280;41944;52.078;-0.058;2022-08-21T11:32:38;101275.82;;;26.02;45.88
56070;BME280;41944;52.078;-0.058;2022-08-21T11:35:16;101279.15;;;25.92;46.74
56070;BME280;41944;52.078;-0.058;2022-08-21T11:37:57;101284.36;;;25.76;46.52
56070;BME280;41944;52.078;-0.058;2022-08-21T11:40:39;101280.36;;;25.81;46.91
56070;BME280;41944;52.078;-0.058;2022-08-21T11:43:15;101278.35;;;25.66;46.87
56070;BME280;41944;52.078;-0.058;2022-08-21T11:45:49;101277.90;;;25.60;47.80
56070;BME280;41944;52.078;-0.058;2022-08-21T11:48:30;101279.36;;;25.63;47.67
56070;BME280;41944;52.078;-0.058;2022-08-21T11:51:05;101280.46;;;25.76;47.40
56070;BME280;41944;52.078;-0.058;2022-08-21T11:53:38;101276.59;;;25.61;47.30
56070;BME280;41944;52.078;-0.058;2022-08-21T11:56:10;101275.90;;;25.68;47.60
56070;BME280;41944;52.078;-0.058;2022-08-21T11:58:45;101277.95;;;25.72;46.48
56070;BME280;41944;52.078;-0.058;2022-08-21T12:01:17;101280.43;;;25.84;46.84
56070;BME280;41944;52.078;-0.058;2022-08-21T12:03:54;101281.75;;;25.81;46.92
56070;BME280;41944;52.078;-0.058;2022-08-21T12:06:31;101285.26;;;25.88;46.41
56070;BME280;41944;52.078;-0.058;2022-08-21T12:09:02;101285.13;;;25.85;46.42
56070;BME280;41944;52.078;-0.058;2022-08-21T12:11:30;101279.59;;;25.82;46.93
56070;BME280;41944;52.078;-0.058;2022-08-21T12:14:10;101282.21;;;25.90;47.13
56070;BME280;41944;52.078;-0.058;2022-08-21T12:16:39;101283.75;;;26.13;46.07
56070;BME280;41944;52.078;-0.058;2022-08-21T12:19:09;101282.44;;;26.17;46.47
56070;BME280;41944;52.078;-0.058;2022-08-21T12:21:50;101280.41;;;26.38;45.66
56070;BME280;41944;52.078;-0.058;2022-08-21T12:24:19;101278.81;;;26.55;45.52
56070;BME280;41944;52.078;-0.058;2022-08-21T12:26:50;101283.00;;;26.51;45.61
56070;BME280;41944;52.078;-0.058;2022-08-21T12:29:23;101276.85;;;26.42;45.38
56070;BME280;41944;52.078;-0.058;2022-08-21T12:31:57;101276.43;;;26.68;45.13
56070;BME280;41944;52.078;-0.058;2022-08-21T12:34:32;101275.18;;;26.52;44.77
56070;BME280;41944;52.078;-0.058;2022-08-21T12:37:03;101276.09;;;26.41;45.59
56070;BME280;41944;52.078;-0.058;2022-08-21T12:39:33;101278.90;;;26.44;46.39
56070;BME280;41944;52.078;-0.058;2022-08-21T12:42:20;101282.39;;;26.61;45.85
56070;BME280;41944;52.078;-0.058;2022-08-21T12:44:51;101279.14;;;26.63;45.57
56070;BME280;41944;52.078;-0.058;2022-08-21T12:47:26;101275.50;;;26.51;45.67
56070;BME280;41944;52.078;-0.058;2022-08-21T12:50:00;101276.87;;;26.62;44.98
56070;BME280;41944;52.078;-0.058;2022-08-21T12:52:31;101276.16;;;26.48;45.40
56070;BME280;41944;52.078;-0.058;2022-08-21T12:54:59;101276.03;;;26.48;45.79